createdAt,value
2018-06-14T00:01:22.715Z,22.80
2018-06-14T00:03:27.998Z,22.91
2018-06-14T00:05:32.977Z,22.83
2018-06-14T00:07:39.352Z,22.72
2018-06-14T00:09:44.372Z,22.88
2018-06-14T00:11:49.316Z,22.82
2018-06-14T00:13:57.783Z,22.61
2018-06-14T00:16:04.011Z,22.42
2018-06-14T00:18:12.527Z,22.82
2018-06-14T00:20:20.430Z,22.62
2018-06-14T00:22:26.390Z,22.68
2018-06-14T00:24:34.274Z,23.07
2018-06-14T00:26:40.250Z,22.79
2018-06-14T00:28:45.433Z,22.51
2018-06-14T00:30:55.276Z,22.96
2018-06-14T00:33:00.566Z,22.40
2018-06-14T00:35:14.050Z,22.40
2018-06-14T00:37:22.742Z,22.23
2018-06-14T00:39:28.203Z,22.55
2018-06-14T00:41:33.296Z,22.14
2018-06-14T00:43:38.347Z,22.70
2018-06-14T00:48:51.921Z,22.37
2018-06-14T00:50:57.420Z,22.45
2018-06-14T00:53:02.448Z,22.38
2018-06-14T00:55:10.333Z,22.24
2018-06-14T01:02:58.317Z,22.39
2018-06-14T01:05:04.996Z,22.37
2018-06-14T01:07:13.370Z,21.75
2018-06-14T01:09:22.193Z,21.77
2018-06-14T01:11:27.826Z,22.03
2018-06-14T01:13:33.479Z,21.73
2018-06-14T01:15:39.402Z,21.98
2018-06-14T01:17:45.118Z,22.01
2018-06-14T01:19:50.094Z,22.31
2018-06-14T01:21:55.787Z,22.61
2018-06-14T01:24:01.588Z,22.16
2018-06-14T01:26:14.190Z,22.05
2018-06-14T01:28:22.702Z,22.36
2018-06-14T01:30:30.221Z,22.45
2018-06-14T01:32:35.819Z,22.23
2018-06-14T01:34:41.716Z,22.19
2018-06-14T01:36:52.244Z,22.44
2018-06-14T01:38:57.998Z,22.58
2018-06-14T01:41:04.035Z,22.58
2018-06-14T01:43:12.989Z,22.02
2018-06-14T01:45:19.904Z,22.50
2018-06-14T01:47:26.915Z,22.34
2018-06-14T01:49:31.970Z,22.46
2018-06-14T01:51:37.479Z,22.34
2018-06-14T01:53:43.350Z,22.20
2018-06-14T01:55:48.873Z,21.93
2018-06-14T01:57:54.487Z,22.02
2018-06-14T02:00:00.124Z,22.31
2018-06-14T02:02:06.605Z,22.88
2018-06-14T02:04:15.061Z,22.45
2018-06-14T02:06:22.203Z,22.55
2018-06-14T02:08:27.646Z,22.65
2018-06-14T02:10:33.346Z,22.55
2018-06-14T02:12:38.901Z,22.69
2018-06-14T02:14:44.676Z,22.77
2018-06-14T02:16:50.671Z,22.58
2018-06-14T02:18:56.439Z,23.14
2018-06-14T02:21:02.458Z,23.17
2018-06-14T02:23:09.868Z,22.79
2018-06-14T02:25:19.329Z,23.11
2018-06-14T02:27:26.449Z,23.06
2018-06-14T02:29:42.394Z,22.79
2018-06-14T02:31:47.348Z,22.83
2018-06-14T02:33:52.941Z,22.83
2018-06-14T02:35:58.494Z,23.07
2018-06-14T02:38:04.018Z,22.56
2018-06-14T02:40:13.947Z,22.29
2018-06-14T02:42:21.663Z,22.81
2018-06-14T02:44:28.154Z,22.99
2018-06-14T02:46:33.365Z,23.12
2018-06-14T02:48:39.556Z,22.96
2018-06-14T02:50:45.178Z,22.74
2018-06-14T02:52:51.053Z,22.92
2018-06-14T02:54:56.492Z,22.69
2018-06-14T02:57:02.774Z,22.39
2018-06-14T02:59:11.775Z,22.46
2018-06-14T03:01:20.926Z,22.62
2018-06-14T03:03:26.396Z,22.68
2018-06-14T03:47:29.199Z,22.32
2018-06-14T03:49:34.755Z,22.48
2018-06-14T03:51:39.710Z,22.75
2018-06-14T03:53:45.716Z,22.69
2018-06-14T03:55:51.267Z,22.63
2018-06-14T03:57:56.202Z,22.77
2018-06-14T04:00:02.240Z,22.68
2018-06-14T04:02:08.367Z,22.70
2018-06-14T04:04:16.000Z,22.54
2018-06-14T04:06:23.048Z,23.04
2018-06-14T04:08:29.572Z,22.92
2018-06-14T04:10:36.015Z,22.86
2018-06-14T04:12:42.479Z,22.91
2018-06-14T04:14:47.523Z,22.67
2018-06-14T04:16:53.103Z,22.92
2018-06-14T04:18:58.981Z,22.57
2018-06-14T04:21:04.205Z,22.41
2018-06-14T04:23:13.274Z,22.95
2018-06-14T04:25:21.927Z,22.85
2018-06-14T04:27:27.391Z,22.72
2018-06-14T04:29:32.786Z,22.64
2018-06-14T04:31:38.798Z,22.66
2018-06-14T04:33:43.754Z,22.96
2018-06-14T04:35:48.849Z,22.35
2018-06-14T04:37:54.082Z,22.53
2018-06-14T04:39:59.455Z,22.51
2018-06-14T04:42:05.215Z,22.54
2018-06-14T04:44:14.508Z,22.41
2018-06-14T04:46:22.317Z,22.96
2018-06-14T04:48:27.317Z,22.47
2018-06-14T04:50:32.907Z,22.46
2018-06-14T04:52:37.916Z,22.73
2018-06-14T04:54:45.032Z,22.83
2018-06-14T04:56:50.239Z,22.61
2018-06-14T04:58:55.224Z,22.51
2018-06-14T05:01:00.283Z,22.39
2018-06-14T05:03:05.665Z,22.27
2018-06-14T05:05:14.098Z,22.38
2018-06-14T05:07:23.907Z,23.20
2018-06-14T05:09:30.012Z,23.21
2018-06-14T05:11:34.976Z,23.33
2018-06-14T05:13:40.390Z,23.56
2018-06-14T05:15:45.647Z,23.72
2018-06-14T05:17:50.619Z,23.69
2018-06-14T05:19:56.848Z,23.83
2018-06-14T05:22:02.934Z,23.92
2018-06-14T05:24:11.149Z,23.70
2018-06-14T05:26:20.799Z,23.94
2018-06-14T05:28:27.269Z,23.74
2018-06-14T05:30:32.799Z,23.61
2018-06-14T05:32:37.766Z,23.78
2018-06-14T05:34:43.026Z,23.88
2018-06-14T05:36:48.678Z,23.71
2018-06-14T05:38:54.024Z,23.66
2018-06-14T05:40:59.234Z,23.45
2018-06-14T05:43:05.591Z,23.53
2018-06-14T05:45:14.191Z,23.44
2018-06-14T05:47:22.572Z,23.13
2018-06-14T05:49:27.942Z,23.24
2018-06-14T05:51:32.936Z,23.51
2018-06-14T05:53:38.847Z,23.49
2018-06-14T05:55:44.439Z,23.76
2018-06-14T05:57:49.682Z,23.96
2018-06-14T05:59:54.890Z,23.63
2018-06-14T06:01:59.898Z,23.75
2018-06-14T06:04:05.406Z,23.68
2018-06-14T06:06:15.102Z,23.40
2018-06-14T06:08:21.383Z,23.51
2018-06-14T06:10:26.570Z,23.54
2018-06-14T06:12:31.820Z,24.23
2018-06-14T06:14:41.783Z,24.02
2018-06-14T06:16:47.354Z,24.07
2018-06-14T06:18:53.218Z,24.14
2018-06-14T06:20:58.741Z,24.18
2018-06-14T06:23:04.065Z,24.51
2018-06-14T06:25:15.804Z,24.17
2018-06-14T06:27:23.294Z,23.95
2018-06-14T06:29:28.671Z,24.51
2018-06-14T06:31:34.611Z,24.29
2018-06-14T06:33:39.988Z,24.61
2018-06-14T06:35:46.382Z,24.29
2018-06-14T06:37:51.816Z,24.18
2018-06-14T06:39:58.510Z,24.37
2018-06-14T06:42:05.406Z,24.51
2018-06-14T06:44:14.710Z,24.52
2018-06-14T06:46:25.043Z,24.18
2018-06-14T06:48:30.699Z,24.42
2018-06-14T06:50:36.701Z,24.38
2018-06-14T06:52:42.214Z,24.75
2018-06-14T06:54:48.080Z,24.73
2018-06-14T06:56:55.118Z,24.27
2018-06-14T06:59:00.827Z,23.95
2018-06-14T07:01:13.189Z,24.17
2018-06-14T07:03:19.828Z,23.87
2018-06-14T07:05:26.910Z,24.00
2018-06-14T07:07:32.500Z,24.11
2018-06-14T07:09:38.234Z,24.26
2018-06-14T07:11:43.839Z,23.88
2018-06-14T07:13:48.987Z,23.89
2018-06-14T07:15:54.757Z,23.82
2018-06-14T07:18:00.996Z,23.87
2018-06-14T07:20:08.512Z,23.94
2018-06-14T07:22:17.526Z,24.08
2018-06-14T07:24:26.214Z,24.13
2018-06-14T07:26:31.260Z,24.21
2018-06-14T07:28:36.606Z,24.26
2018-06-14T07:30:42.064Z,24.24
2018-06-14T07:32:47.462Z,24.17
2018-06-14T07:34:53.474Z,24.00
2018-06-14T07:36:58.996Z,24.19
2018-06-14T07:39:06.005Z,24.44
2018-06-14T07:41:14.794Z,24.41
2018-06-14T07:43:25.820Z,24.71
2018-06-14T07:45:31.167Z,24.41
2018-06-14T07:47:36.953Z,24.47
2018-06-14T07:49:43.130Z,24.25
2018-06-14T07:51:48.543Z,24.96
2018-06-14T07:53:53.730Z,24.81
2018-06-14T07:55:59.267Z,24.20
2018-06-14T07:58:04.699Z,24.61
2018-06-14T08:00:12.844Z,24.50
2018-06-14T08:02:20.070Z,24.61
2018-06-14T08:04:26.087Z,24.56
2018-06-14T08:06:31.507Z,24.37
2018-06-14T08:08:37.403Z,23.90
2018-06-14T08:10:42.522Z,23.52
2018-06-14T08:12:48.397Z,24.12
2018-06-14T08:14:53.847Z,23.69
2018-06-14T08:16:58.830Z,23.93
2018-06-14T08:19:04.593Z,24.05
2018-06-14T08:21:12.866Z,24.08
2018-06-14T08:23:23.951Z,24.28
2018-06-14T08:25:29.681Z,24.27
2018-06-14T08:27:34.643Z,24.08
2018-06-14T08:29:40.087Z,24.29
2018-06-14T08:31:45.334Z,24.45
2018-06-14T08:33:50.435Z,24.37
2018-06-14T08:35:55.590Z,24.73
2018-06-14T08:38:00.923Z,24.67
2018-06-14T08:40:06.094Z,24.69
2018-06-14T08:42:14.356Z,24.91
2018-06-14T08:44:25.296Z,24.85
2018-06-14T08:46:30.443Z,24.63
2018-06-14T08:48:35.855Z,24.72
2018-06-14T08:50:41.130Z,24.84
2018-06-14T08:52:46.788Z,24.67
2018-06-14T08:54:51.758Z,25.08
2018-06-14T08:56:57.139Z,24.88
2018-06-14T08:59:02.981Z,24.78
2018-06-14T09:01:10.267Z,25.25
2018-06-14T09:03:17.303Z,24.97
2018-06-14T09:05:24.258Z,25.24
2018-06-14T09:07:30.547Z,25.48
2018-06-14T09:09:35.920Z,25.33
2018-06-14T09:11:42.175Z,24.97
2018-06-14T09:13:47.126Z,25.23
2018-06-14T09:15:52.474Z,25.17
2018-06-14T09:17:57.539Z,25.01
2018-06-14T09:20:02.659Z,25.26
2018-06-14T09:22:10.886Z,25.31
2018-06-14T09:24:18.354Z,25.10
2018-06-14T09:26:24.336Z,25.12
2018-06-14T09:28:29.644Z,25.11
2018-06-14T09:30:34.671Z,24.99
2018-06-14T09:32:39.639Z,24.93
2018-06-14T09:34:45.539Z,24.93
2018-06-14T09:36:50.509Z,24.77
2018-06-14T09:38:56.099Z,25.02
2018-06-14T09:41:02.504Z,24.74
2018-06-14T09:43:10.187Z,24.54
2018-06-14T09:45:18.405Z,24.42
2018-06-14T09:47:26.354Z,24.63
2018-06-14T09:49:31.282Z,24.41
2018-06-14T09:51:36.226Z,24.89
2018-06-14T09:53:41.596Z,24.67
2018-06-14T09:55:46.619Z,24.57
2018-06-14T09:57:51.608Z,24.50
2018-06-14T09:59:56.818Z,25.04
2018-06-14T10:02:01.792Z,25.09
2018-06-14T10:04:08.806Z,25.04
2018-06-14T10:06:17.277Z,25.09
2018-06-14T10:08:25.066Z,25.47
2018-06-14T10:10:30.374Z,25.48
2018-06-14T10:12:37.604Z,25.46
2018-06-14T10:14:42.765Z,25.38
2018-06-14T10:16:48.102Z,25.59
2018-06-14T10:18:53.642Z,25.47
2018-06-14T10:20:59.608Z,25.59
2018-06-14T10:23:04.807Z,25.26
2018-06-14T10:25:14.874Z,25.45
2018-06-14T10:27:24.588Z,25.66
2018-06-14T10:29:30.109Z,25.67
2018-06-14T10:31:44.255Z,25.57
2018-06-14T10:33:49.923Z,25.30
2018-06-14T10:35:56.630Z,25.43
2018-06-14T10:38:19.616Z,25.37
2018-06-14T10:40:27.450Z,24.99
2018-06-14T10:42:33.392Z,25.27
2018-06-14T10:44:43.904Z,25.28
2018-06-14T10:46:54.602Z,25.22
2018-06-14T10:49:06.843Z,25.32
2018-06-14T10:51:15.830Z,25.56
2018-06-14T10:53:23.803Z,25.78
2018-06-14T10:55:32.783Z,25.88
2018-06-14T10:57:41.315Z,25.29
2018-06-14T10:59:46.642Z,25.15
2018-06-14T11:01:53.543Z,25.11
2018-06-14T11:03:59.033Z,24.86
2018-06-14T11:06:04.466Z,25.31
2018-06-14T11:08:13.627Z,25.26
2018-06-14T11:10:23.713Z,24.97
2018-06-14T11:12:30.183Z,25.16
2018-06-14T11:14:35.226Z,25.33
2018-06-14T11:16:40.970Z,25.70
2018-06-14T11:18:46.078Z,25.74
2018-06-14T11:20:51.443Z,25.89
2018-06-14T11:22:57.293Z,25.96
2018-06-14T11:25:03.564Z,25.68
2018-06-14T11:27:09.302Z,26.04
2018-06-14T11:29:18.300Z,25.60
2018-06-14T11:31:24.152Z,26.06
2018-06-14T11:33:29.314Z,26.05
2018-06-14T11:35:34.706Z,25.91
2018-06-14T11:37:42.498Z,25.92
2018-06-14T11:39:48.614Z,25.89
2018-06-14T11:41:54.074Z,25.99
2018-06-14T11:43:59.217Z,26.18
2018-06-14T11:46:04.819Z,26.20
2018-06-14T11:48:11.962Z,25.96
2018-06-14T11:50:21.815Z,26.16
2018-06-14T11:52:27.518Z,26.24
2018-06-14T11:54:32.942Z,26.31
2018-06-14T11:56:38.305Z,26.20
2018-06-14T11:58:43.464Z,26.25
2018-06-14T12:00:49.043Z,26.28
2018-06-14T12:02:54.187Z,26.33
2018-06-14T12:05:01.114Z,26.38
2018-06-14T12:07:06.814Z,26.56
2018-06-14T12:09:15.308Z,26.98
2018-06-14T12:11:26.918Z,28.09
2018-06-14T12:13:32.174Z,29.56
2018-06-14T12:15:38.843Z,30.23
2018-06-14T12:17:44.585Z,30.99
2018-06-14T12:19:50.775Z,31.59
2018-06-14T12:21:55.776Z,31.80
2018-06-14T12:24:00.717Z,31.43
2018-06-14T12:26:07.490Z,30.88
2018-06-14T12:28:15.301Z,31.55
2018-06-14T12:30:21.117Z,32.18
2018-06-14T12:32:26.608Z,32.22
2018-06-14T12:34:31.579Z,33.20
2018-06-14T12:36:36.495Z,33.81
2018-06-14T12:38:41.771Z,33.62
2018-06-14T12:40:46.683Z,33.96
2018-06-14T12:42:51.634Z,34.15
2018-06-14T12:44:56.942Z,33.97
2018-06-14T12:47:01.868Z,34.64
2018-06-14T12:49:08.868Z,35.20
2018-06-14T12:51:16.383Z,34.83
2018-06-14T12:53:23.767Z,35.29
2018-06-14T12:55:28.763Z,35.49
2018-06-14T12:57:33.973Z,35.73
2018-06-14T12:59:38.912Z,36.07
2018-06-14T13:01:43.955Z,35.98
2018-06-14T13:03:49.180Z,35.77
2018-06-14T13:05:54.115Z,36.18
2018-06-14T13:07:59.116Z,35.83
2018-06-14T13:10:04.726Z,34.06
2018-06-14T13:12:11.810Z,36.06
2018-06-14T13:14:19.874Z,36.35
2018-06-14T13:16:26.211Z,36.34
2018-06-14T13:18:31.207Z,36.40
2018-06-14T13:20:36.155Z,36.33
2018-06-14T13:22:41.416Z,36.40
2018-06-14T13:24:46.589Z,34.16
2018-06-14T13:26:51.559Z,35.79
2018-06-14T13:28:56.883Z,35.02
2018-06-14T13:31:01.858Z,36.22
2018-06-14T13:33:08.771Z,36.37
2018-06-14T13:35:16.081Z,36.62
2018-06-14T13:37:22.116Z,36.68
2018-06-14T13:39:27.103Z,36.72
2018-06-14T13:41:32.328Z,36.61
2018-06-14T13:43:37.323Z,36.61
2018-06-14T13:45:44.135Z,36.41
2018-06-14T13:47:50.105Z,36.38
2018-06-14T13:49:59.591Z,36.17
2018-06-14T13:52:05.163Z,36.07
2018-06-14T13:54:14.407Z,34.86
2018-06-14T13:56:22.201Z,35.48
2018-06-14T13:58:27.495Z,35.41
2018-06-14T14:00:32.916Z,35.35
2018-06-14T14:02:39.319Z,35.27
2018-06-14T14:04:45.139Z,34.83
2018-06-14T14:06:55.425Z,33.97
2018-06-14T14:09:01.328Z,34.18
2018-06-14T14:11:10.061Z,33.85
2018-06-14T14:13:18.110Z,33.52
2018-06-14T14:15:26.034Z,33.00
2018-06-14T14:17:33.974Z,32.75
2018-06-14T14:19:41.751Z,32.26
2018-06-14T14:21:46.888Z,31.84
2018-06-14T14:23:51.981Z,32.23
2018-06-14T14:25:57.459Z,32.10
2018-06-14T14:28:02.598Z,31.99
2018-06-14T14:30:07.830Z,31.86
2018-06-14T14:32:19.810Z,31.96
2018-06-14T14:34:25.208Z,31.82
2018-06-14T14:36:34.367Z,31.88
2018-06-14T14:38:40.282Z,31.65
2018-06-14T14:40:46.288Z,31.67
2018-06-14T14:42:51.983Z,31.89
2018-06-14T14:45:03.893Z,31.74
2018-06-14T14:47:14.187Z,31.72
2018-06-14T14:49:23.543Z,31.69
2018-06-14T14:51:31.356Z,31.65
2018-06-14T14:53:36.387Z,31.67
2018-06-14T14:55:41.578Z,31.66
2018-06-14T14:57:48.674Z,31.67
2018-06-14T14:59:57.004Z,31.62
2018-06-14T15:02:02.717Z,31.48
2018-06-14T15:04:10.953Z,31.64
2018-06-14T15:06:18.673Z,31.50
2018-06-14T15:08:30.175Z,31.48
2018-06-14T15:10:35.429Z,31.43
2018-06-14T15:12:46.463Z,31.59
2018-06-14T15:14:51.489Z,31.60
2018-06-14T15:16:56.759Z,31.44
2018-06-14T15:19:03.042Z,31.49
2018-06-14T15:21:10.711Z,31.52
2018-06-14T15:23:18.412Z,31.58
2018-06-14T15:25:25.993Z,31.41
2018-06-14T15:27:31.041Z,31.45
2018-06-14T15:29:40.169Z,31.55
2018-06-14T15:31:48.514Z,31.57
2018-06-14T15:33:55.674Z,31.47
2018-06-14T15:36:12.114Z,31.39
2018-06-14T15:38:29.995Z,31.44
2018-06-14T15:40:41.995Z,31.37
2018-06-14T15:42:47.362Z,31.41
2018-06-14T15:45:04.965Z,31.53
2018-06-14T15:47:18.334Z,31.57
2018-06-14T15:49:26.750Z,31.41
2018-06-14T15:51:35.114Z,31.40
2018-06-14T15:53:42.816Z,31.37
2018-06-14T15:56:51.566Z,31.35
2018-06-14T15:58:58.234Z,31.25
2018-06-14T16:01:06.008Z,31.19
2018-06-14T16:03:15.689Z,31.07
2018-06-14T16:05:24.388Z,31.17
2018-06-14T16:07:44.406Z,30.96
2018-06-14T16:09:50.183Z,30.90
2018-06-14T16:11:55.455Z,30.84
2018-06-14T16:14:01.323Z,30.94
2018-06-14T16:16:07.849Z,30.93
2018-06-14T16:18:16.834Z,30.82
2018-06-14T16:20:24.562Z,30.86
2018-06-14T16:22:30.466Z,30.92
2018-06-14T16:24:35.712Z,30.75
2018-06-14T16:26:41.223Z,30.55
2018-06-14T16:28:46.463Z,30.54
2018-06-14T16:30:51.984Z,30.57
2018-06-14T16:33:01.502Z,30.64
2018-06-14T16:35:13.417Z,30.66
2018-06-14T16:37:21.752Z,30.55
2018-06-14T16:39:27.620Z,30.61
2018-06-14T16:41:35.129Z,30.64
2018-06-14T16:43:42.954Z,30.63
2018-06-14T16:45:48.329Z,30.58
2018-06-14T16:47:53.344Z,30.42
2018-06-14T16:49:58.786Z,30.12
2018-06-14T16:52:05.187Z,29.89
2018-06-14T16:54:13.540Z,29.83
2018-06-14T16:56:22.676Z,29.88
2018-06-14T16:58:29.424Z,29.99
2018-06-14T17:00:34.712Z,29.84
2018-06-14T17:02:42.458Z,29.84
2018-06-14T17:04:49.815Z,29.91
2018-06-14T17:06:55.372Z,29.89
2018-06-14T17:09:01.110Z,29.80
2018-06-14T17:11:08.549Z,29.76
2018-06-14T17:13:16.160Z,29.66
2018-06-14T17:15:23.934Z,29.39
2018-06-14T17:17:30.037Z,29.28
2018-06-14T17:19:36.154Z,29.21
2018-06-14T17:21:41.453Z,29.38
2018-06-14T17:23:46.995Z,29.33
2018-06-14T17:25:52.079Z,29.39
2018-06-14T17:27:57.263Z,29.40
2018-06-14T17:30:02.748Z,29.42
2018-06-14T17:32:10.591Z,29.36
2018-06-14T17:34:17.657Z,29.35
2018-06-14T17:36:24.822Z,29.22
2018-06-14T17:39:54.048Z,29.14
2018-06-14T17:42:00.069Z,29.06
2018-06-14T17:44:06.352Z,28.93
2018-06-14T17:46:15.250Z,28.88
2018-06-14T17:48:26.516Z,28.81
2018-06-14T17:50:32.666Z,28.77
2018-06-14T17:52:37.804Z,28.76
2018-06-14T17:54:43.180Z,28.76
2018-06-14T17:56:48.243Z,28.60
2018-06-14T17:58:53.279Z,28.39
2018-06-14T18:00:58.595Z,28.43
2018-06-14T18:03:04.121Z,28.32
2018-06-14T18:05:12.720Z,28.20
2018-06-14T18:07:23.850Z,28.11
2018-06-14T18:09:28.953Z,28.09
2018-06-14T18:11:33.935Z,28.06
2018-06-14T18:13:39.207Z,27.74
2018-06-14T18:15:44.546Z,27.53
2018-06-14T18:17:49.665Z,27.42
2018-06-14T18:19:55.268Z,27.69
2018-06-14T18:22:00.381Z,27.76
2018-06-14T18:24:06.478Z,27.19
2018-06-14T18:26:20.622Z,27.06
2018-06-14T18:28:27.299Z,26.91
2018-06-14T18:30:47.974Z,27.10
2018-06-14T18:32:53.999Z,27.13
2018-06-14T18:35:00.437Z,26.85
2018-06-14T18:37:11.000Z,26.71
2018-06-14T18:39:21.179Z,26.45
2018-06-14T18:41:29.323Z,26.71
2018-06-14T18:46:12.483Z,26.88
2018-06-14T18:48:22.435Z,26.93
2018-06-14T18:50:29.444Z,26.54
2018-06-14T18:52:35.420Z,26.13
2018-06-14T18:54:44.272Z,26.51
2018-06-14T18:56:52.277Z,26.31
2018-06-14T18:59:00.326Z,26.16
2018-06-14T19:01:08.000Z,26.21
2018-06-14T19:03:16.046Z,26.40
2018-06-14T19:05:29.003Z,26.41
2018-06-14T19:07:34.191Z,25.97
2018-06-14T19:09:39.363Z,26.01
2018-06-14T19:11:44.895Z,26.09
2018-06-14T19:13:50.110Z,25.69
2018-06-14T19:15:55.155Z,25.42
2018-06-14T19:18:00.634Z,25.69
2018-06-14T19:20:06.632Z,25.73
2018-06-14T19:22:15.862Z,25.61
2018-06-14T19:24:24.982Z,25.66
2018-06-14T19:26:30.065Z,25.62
2018-06-14T19:28:35.064Z,25.85
2018-06-14T19:30:40.547Z,25.83
2018-06-14T19:32:49.881Z,26.06
2018-06-14T19:34:54.868Z,25.63
2018-06-14T19:37:00.235Z,25.78
2018-06-14T19:39:10.549Z,25.55
2018-06-14T19:41:18.139Z,25.44
2018-06-14T19:43:25.870Z,25.47
2018-06-14T19:45:33.438Z,25.67
2018-06-14T19:47:38.403Z,25.47
2018-06-14T19:49:43.672Z,25.70
2018-06-14T19:51:48.788Z,25.76
2018-06-14T19:53:53.723Z,25.71
2018-06-14T19:55:58.992Z,25.57
2018-06-14T19:58:04.799Z,25.35
2018-06-14T20:00:12.793Z,25.62
2018-06-14T20:02:21.827Z,25.67
2018-06-14T20:04:28.696Z,25.71
2018-06-14T20:06:34.511Z,25.24
2018-06-14T20:08:39.951Z,25.57
2018-06-14T20:10:45.503Z,25.67
2018-06-14T20:12:51.245Z,25.54
2018-06-14T20:14:56.671Z,25.48
2018-06-14T20:17:01.909Z,25.50
2018-06-14T20:19:09.538Z,25.29
2018-06-14T20:21:18.689Z,25.40
2018-06-14T20:23:25.084Z,25.20
2018-06-14T20:25:30.227Z,25.35
2018-06-14T20:27:35.626Z,25.33
2018-06-14T20:29:40.838Z,25.46
2018-06-14T20:31:45.976Z,25.55
2018-06-14T20:33:51.221Z,25.28
2018-06-14T20:35:56.567Z,25.30
2018-06-14T20:38:02.102Z,25.19
2018-06-14T20:40:09.441Z,24.59
2018-06-14T20:42:21.860Z,24.82
2018-06-14T20:44:27.753Z,24.63
2018-06-14T20:46:33.408Z,24.41
2018-06-14T20:48:52.914Z,23.83
2018-06-14T20:50:57.980Z,23.77
2018-06-14T20:53:03.484Z,23.47
2018-06-14T20:55:11.588Z,23.74
2018-06-14T20:57:31.711Z,23.64
2018-06-14T20:59:44.195Z,23.55
2018-06-14T21:01:54.470Z,23.73
2018-06-14T21:04:00.369Z,23.54
2018-06-14T21:06:06.763Z,23.73
2018-06-14T21:08:14.488Z,23.26
2018-06-14T21:10:23.481Z,23.88
2018-06-14T21:12:28.911Z,23.96
2018-06-14T21:14:33.931Z,23.67
2018-06-14T21:16:39.028Z,23.32
2018-06-14T21:18:44.328Z,23.27
2018-06-14T21:20:49.466Z,23.33
2018-06-14T21:22:54.493Z,22.90
2018-06-14T21:24:59.799Z,22.66
2018-06-14T21:27:05.379Z,22.23
2018-06-14T21:29:14.828Z,22.47
2018-06-14T21:31:23.114Z,22.83
2018-06-14T21:33:29.989Z,22.97
2018-06-14T21:35:37.349Z,22.71
2018-06-14T21:37:42.576Z,22.44
2018-06-14T21:39:48.284Z,22.73
2018-06-14T21:41:53.549Z,23.24
2018-06-14T21:43:58.855Z,23.22
2018-06-14T21:46:04.774Z,22.61
2018-06-14T21:48:13.635Z,22.01
2018-06-14T21:50:29.522Z,21.65
2018-06-14T21:52:34.442Z,22.10
2018-06-14T21:54:39.415Z,22.28
2018-06-14T21:56:44.918Z,22.90
2018-06-14T21:58:49.892Z,22.59
2018-06-14T22:00:55.315Z,22.96
2018-06-14T22:03:06.291Z,23.24
2018-06-14T22:05:14.822Z,22.89
2018-06-14T22:07:23.345Z,22.74
2018-06-14T22:09:28.858Z,22.97
2018-06-14T22:11:34.249Z,22.83
2018-06-14T22:13:40.141Z,23.18
2018-06-14T22:15:45.760Z,23.53
2018-06-14T22:17:51.295Z,22.38
2018-06-14T22:19:56.438Z,22.70
2018-06-14T22:22:01.655Z,22.20
2018-06-14T22:24:08.590Z,22.50
2018-06-14T22:26:17.061Z,22.40
2018-06-14T22:28:24.344Z,21.80
2018-06-14T22:30:29.694Z,22.16
2018-06-14T22:32:35.156Z,22.47
2018-06-14T22:34:51.168Z,22.16
2018-06-14T22:36:56.834Z,22.04
2018-06-14T22:39:02.292Z,21.87
2018-06-14T22:41:08.669Z,21.84
2018-06-14T22:43:16.104Z,22.15
2018-06-14T22:45:25.193Z,22.18
2018-06-14T22:47:32.019Z,22.05
2018-06-14T22:49:36.986Z,22.00
2018-06-14T22:53:49.432Z,22.02
2018-06-14T22:55:54.429Z,22.67
2018-06-14T22:57:59.482Z,22.57
2018-06-14T23:00:05.108Z,22.56
2018-06-14T23:02:10.112Z,22.74
2018-06-14T23:04:19.675Z,22.86
2018-06-14T23:06:25.532Z,23.29
2018-06-14T23:08:32.348Z,23.51
2018-06-14T23:10:47.471Z,23.30
2018-06-14T23:12:52.767Z,23.49
2018-06-14T23:14:57.743Z,23.55
2018-06-14T23:17:02.798Z,23.67
2018-06-14T23:19:09.458Z,23.65
2018-06-14T23:21:17.208Z,23.77
2018-06-14T23:23:23.435Z,23.73
2018-06-14T23:25:32.395Z,23.79
2018-06-14T23:27:37.344Z,23.78
2018-06-14T23:29:42.502Z,23.65
2018-06-14T23:31:47.723Z,23.92
2018-06-14T23:33:52.760Z,23.81
2018-06-14T23:35:57.766Z,23.84
2018-06-14T23:38:03.066Z,23.99
2018-06-14T23:40:09.395Z,23.83
2018-06-14T23:42:16.916Z,24.08
2018-06-14T23:44:25.568Z,23.96
2018-06-14T23:46:30.602Z,24.05
2018-06-14T23:48:35.613Z,24.07
2018-06-14T23:50:40.931Z,23.68
2018-06-14T23:52:46.340Z,23.78
2018-06-14T23:54:51.567Z,24.02
2018-06-14T23:56:57.455Z,24.09
2018-06-14T23:59:02.987Z,24.14
